Time;durP1;ratioP1;P1;durP2;ratioP2;P2;SDS_P1;SDS_P2;PMS_P1;PMS_P2;Temp;Humidity;BMP_temperature;BMP_pressure;BME280_temperature;BME280_humidity;BME280_pressure;Samples;Min_cycle;Max_cycle;Signal;HPM_P1;HPM_P2
2023/04/11 00:00:50;;;;;;;34.70;18.95;;;;;;;10.99;80.44;100168.88;5010016;28;20073;-83
2023/04/11 00:03:16;;;;;;;35.92;19.55;;;;;;;10.90;81.30;100154.44;5010607;28;20061;-83
2023/04/11 00:05:41;;;;;;;30.77;18.50;;;;;;;11.01;81.39;100163.38;5011687;28;20548;-83
2023/04/11 00:08:07;;;;;;;30.73;18.40;;;;;;;11.03;81.54;100161.41;5013634;28;20112;-83
2023/04/11 00:10:33;;;;;;;33.45;20.25;;;;;;;11.00;81.28;100153.59;4994936;28;20040;-83
2023/04/11 00:12:58;;;;;;;33.28;19.65;;;;;;;11.00;81.58;100158.97;5021204;28;20507;-82
2023/04/11 00:15:25;;;;;;;38.67;20.65;;;;;;;11.01;81.80;100150.75;5029344;28;20041;-83
2023/04/11 00:17:52;;;;;;;34.70;19.88;;;;;;;10.95;82.35;100128.97;5023480;28;20083;-81
2023/04/11 00:20:21;;;;;;;28.90;18.60;;;;;;;11.02;82.87;100140.84;5010143;28;20746;-82
2023/04/11 00:22:46;;;;;;;81.00;40.72;;;;;;;11.02;82.42;100140.84;5012751;28;22329;-82
2023/04/11 00:25:12;;;;;;;29.30;19.55;;;;;;;11.03;82.63;100138.03;5012946;28;20061;-82
2023/04/11 00:27:37;;;;;;;30.88;19.08;;;;;;;10.95;82.67;100112.81;5012292;28;20068;-82
2023/04/11 00:30:06;;;;;;;28.50;18.48;;;;;;;11.02;82.61;100116.63;5012134;28;20569;-81
2023/04/11 00:32:32;;;;;;;32.42;19.92;;;;;;;10.98;83.24;100115.22;5011569;28;20133;-80
2023/04/11 00:34:58;;;;;;;33.83;19.50;;;;;;;10.88;84.23;100113.38;5014428;28;20037;-80
2023/04/11 00:37:23;;;;;;;35.40;21.20;;;;;;;10.77;84.69;100108.09;5012933;28;20033;-81
2023/04/11 00:39:49;;;;;;;29.65;19.02;;;;;;;10.71;85.11;100097.91;5012066;28;20528;-80
2023/04/11 00:42:15;;;;;;;34.60;20.38;;;;;;;10.67;85.40;100103.72;5011967;28;20387;-82
2023/04/11 00:44:41;;;;;;;37.00;20.17;;;;;;;10.68;86.23;100095.50;5011652;28;20030;-80
2023/04/11 00:47:07;;;;;;;32.17;20.42;;;;;;;10.58;86.79;100083.84;5010229;28;20030;-80
2023/04/11 00:49:34;;;;;;;33.55;20.25;;;;;;;10.56;86.67;100085.84;5012447;28;20030;-80
2023/04/11 00:51:59;;;;;;;33.67;20.45;;;;;;;10.56;87.73;100090.34;5012279;28;20041;-80
2023/04/11 00:54:29;;;;;;;28.48;18.98;;;;;;;10.42;87.54;100056.66;5012505;28;20042;-80
2023/04/11 00:57:00;;;;;;;30.23;18.13;;;;;;;10.47;88.16;100064.31;5011112;28;20405;-79
2023/04/11 00:59:27;;;;;;;34.95;19.88;;;;;;;10.47;88.41;100054.41;5015976;28;20100;-80
2023/04/11 01:01:53;;;;;;;30.83;19.25;;;;;;;10.47;89.13;100070.53;5015405;28;20029;-80
2023/04/11 01:04:20;;;;;;;30.42;19.42;;;;;;;10.48;88.51;100079.44;5015930;28;20083;-79
2023/04/11 01:06:50;;;;;;;32.97;20.27;;;;;;;10.52;88.38;100076.34;5028813;28;20045;-81
2023/04/11 01:09:16;;;;;;;30.35;18.55;;;;;;;10.45;87.91;100068.97;5030053;28;20037;-78
2023/04/11 01:11:41;;;;;;;33.92;19.98;;;;;;;10.51;88.17;100061.22;5023189;28;20033;-79
2023/04/11 01:14:07;;;;;;;35.30;20.55;;;;;;;10.47;88.25;100058.91;5025250;28;20090;-80
2023/04/11 01:16:32;;;;;;;30.95;19.38;;;;;;;10.47;88.60;100054.41;5019043;28;20088;-81
2023/04/11 01:18:58;;;;;;;29.00;19.10;;;;;;;10.41;88.99;100027.22;5012788;28;20088;-79
2023/04/11 01:21:24;;;;;;;33.13;18.75;;;;;;;10.47;89.54;100038.28;5011585;28;20025;-79
2023/04/11 01:23:53;;;;;;;29.67;18.98;;;;;;;10.52;89.26;100038.69;5010045;28;20022;-79
2023/04/11 01:26:18;;;;;;;45.28;19.40;;;;;;;10.58;89.55;100032.75;5025966;28;20034;-79
2023/04/11 01:28:44;;;;;;;32.03;19.13;;;;;;;10.54;89.41;100015.22;5010772;28;20037;-79
2023/04/11 01:31:09;;;;;;;29.30;19.08;;;;;;;10.63;89.82;100024.28;5008294;28;20477;-78
2023/04/11 01:33:35;;;;;;;29.75;17.10;;;;;;;10.65;89.48;100015.09;5010670;28;20125;-80
2023/04/11 01:36:01;;;;;;;33.40;20.05;;;;;;;10.64;89.71;99999.09;5010756;28;20076;-81
2023/04/11 01:38:26;;;;;;;31.67;19.23;;;;;;;10.72;89.36;100001.94;5010190;28;20080;-81
2023/04/11 01:40:53;;;;;;;35.42;20.05;;;;;;;10.68;88.86;99990.59;5010184;28;20076;-80
2023/04/11 01:43:19;;;;;;;31.98;20.60;;;;;;;10.74;89.29;99992.72;5009930;28;20040;-79
2023/04/11 01:45:45;;;;;;;32.35;20.83;;;;;;;10.70;89.26;99991.28;5010605;28;20026;-79
2023/04/11 01:48:13;;;;;;;35.85;20.60;;;;;;;10.71;89.87;99986.78;5010505;28;20038;-79
2023/04/11 01:50:38;;;;;;;33.55;20.92;;;;;;;10.64;90.27;99986.47;5010594;28;20053;-79
2023/04/11 01:53:04;;;;;;;35.33;21.42;;;;;;;10.64;89.99;99975.72;5010010;28;20126;-79
2023/04/11 01:55:30;;;;;;;33.30;23.02;;;;;;;10.67;90.55;99975.44;5009882;28;20026;-81
2023/04/11 01:57:55;;;;;;;37.08;22.33;;;;;;;10.67;91.26;99959.31;5009719;28;20065;-79
2023/04/11 02:00:21;;;;;;;34.10;22.90;;;;;;;10.76;90.74;99963.84;5010083;28;20026;-78
2023/04/11 02:02:46;;;;;;;35.80;21.88;;;;;;;10.81;90.10;99975.03;4991384;28;20041;-79
2023/04/11 02:05:12;;;;;;;29.45;20.65;;;;;;;10.71;90.80;99959.88;5011181;28;20025;-78
2023/04/11 02:07:37;;;;;;;31.35;20.58;;;;;;;10.79;90.22;99963.56;5010087;28;20030;-78
2023/04/11 02:10:03;;;;;;;35.97;20.42;;;;;;;10.80;90.95;99964.41;5009755;28;20084;-80
2023/04/11 02:12:29;;;;;;;33.42;21.95;;;;;;;10.73;90.75;99969.50;5014515;28;20084;-79
2023/04/11 02:14:54;;;;;;;30.83;21.00;;;;;;;10.77;91.56;99968.25;5014813;28;20037;-79
2023/04/11 02:17:21;;;;;;;31.23;20.88;;;;;;;10.73;91.91;99950.66;4992130;28;20096;-79
2023/04/11 02:19:47;;;;;;;32.53;20.00;;;;;;;10.74;91.91;99944.31;5009474;28;20030;-79
2023/04/11 02:22:13;;;;;;;29.55;20.88;;;;;;;10.72;91.49;99940.06;5009322;28;20038;-79
2023/04/11 02:24:39;;;;;;;30.10;19.02;;;;;;;10.75;92.17;99918.28;5009509;28;20021;-80
2023/04/11 02:27:05;;;;;;;28.33;20.48;;;;;;;10.74;92.73;99917.41;5009454;28;20331;-81
2023/04/11 02:29:30;;;;;;;26.65;17.42;;;;;;;10.73;92.42;99913.03;5009706;28;20030;-79
2023/04/11 02:31:56;;;;;;;27.23;17.23;;;;;;;10.72;92.16;99919.41;5010120;28;20120;-80
2023/04/11 02:34:21;;;;;;;22.17;14.85;;;;;;;10.71;92.39;99903.41;5009682;28;20029;-77
2023/04/11 02:36:47;;;;;;;19.80;13.48;;;;;;;10.64;91.43;99895.06;5009165;28;20030;-81
2023/04/11 02:39:13;;;;;;;21.50;13.75;;;;;;;10.67;91.32;99883.19;5008975;28;20058;-80
2023/04/11 02:41:40;;;;;;;20.88;13.70;;;;;;;10.62;90.91;99869.31;5008967;28;20070;-81
2023/04/11 02:44:06;;;;;;;24.60;16.45;;;;;;;10.69;90.91;99881.19;5008721;28;20577;-82
2023/04/11 02:46:31;;;;;;;24.17;16.83;;;;;;;10.68;91.38;99868.72;5008986;28;20072;-82
2023/04/11 02:48:56;;;;;;;28.40;16.13;;;;;;;10.67;90.99;99862.50;5008671;28;20339;-81
2023/04/11 02:51:22;;;;;;;26.90;17.92;;;;;;;10.74;91.48;99854.72;5008772;28;20033;-81
2023/04/11 02:53:47;;;;;;;27.52;19.10;;;;;;;10.75;91.29;99843.81;5009063;28;20509;-81
2023/04/11 02:56:17;;;;;;;34.30;19.58;;;;;;;10.82;90.80;99862.94;5008636;28;20034;-81
2023/04/11 02:58:43;;;;;;;30.25;21.42;;;;;;;10.81;91.32;99843.25;5008862;28;20041;-83
2023/04/11 03:01:10;;;;;;;41.17;23.38;;;;;;;10.86;90.80;99859.78;5008999;28;20030;-82
2023/04/11 03:03:37;;;;;;;32.63;21.83;;;;;;;10.89;90.67;99851.41;5009159;28;20022;-83
2023/04/11 03:06:03;;;;;;;33.90;23.63;;;;;;;10.89;90.26;99851.41;5009779;28;20112;-82
2023/04/11 03:08:28;;;;;;;36.58;26.50;;;;;;;10.92;90.24;99845.75;5008638;28;20537;-82
2023/04/11 03:10:54;;;;;;;36.95;26.05;;;;;;;10.94;90.70;99840.25;5030892;28;20057;-83
2023/04/11 03:13:19;;;;;;;44.08;25.75;;;;;;;10.97;90.87;99847.16;5022654;28;20030;-82
2023/04/11 03:15:45;;;;;;;38.25;27.50;;;;;;;10.96;90.54;99850.84;5017034;28;20114;-83
2023/04/11 03:18:10;;;;;;;41.58;28.17;;;;;;;10.97;90.65;99839.09;5008840;28;20461;-84
2023/04/11 03:20:35;;;;;;;43.75;30.23;;;;;;;10.93;90.31;99836.69;5009502;28;20508;-84
2023/04/11 03:23:01;;;;;;;45.33;27.38;;;;;;;10.89;91.14;99840.66;5009496;28;20045;-84
2023/04/11 03:25:27;;;;;;;41.65;29.13;;;;;;;10.91;90.66;99848.59;5012088;28;20030;-85
2023/04/11 03:27:52;;;;;;;39.13;28.77;;;;;;;10.85;91.30;99831.22;5012757;28;20030;-82
2023/04/11 03:30:18;;;;;;;43.55;29.67;;;;;;;10.91;92.05;99849.44;5010755;28;20029;-85
2023/04/11 03:32:44;;;;;;;45.15;31.52;;;;;;;10.85;92.53;99849.19;5008929;28;20510;-84
2023/04/11 03:35:09;;;;;;;49.65;33.42;;;;;;;10.72;93.49;99838.72;5009023;28;20029;-82
2023/04/11 03:37:35;;;;;;;57.83;34.35;;;;;;;10.73;94.42;99832.34;5009129;28;20037;-80
2023/04/11 03:40:00;;;;;;;51.13;34.15;;;;;;;10.65;94.78;99834.91;5008705;28;20341;-81
2023/04/11 03:42:26;;;;;;;50.75;34.65;;;;;;;10.64;95.84;99833.22;5008788;28;20026;-83
2023/04/11 03:44:51;;;;;;;51.25;36.13;;;;;;;10.58;96.61;99833.78;5008147;28;20030;-80
2023/04/11 03:47:17;;;;;;;47.97;35.25;;;;;;;10.53;97.60;99830.69;5009005;28;20026;-82
2023/04/11 03:49:42;;;;;;;44.15;33.92;;;;;;;10.49;98.03;99834.66;5008783;28;20029;-82
2023/04/11 03:52:08;;;;;;;51.85;34.78;;;;;;;10.51;98.59;99838.06;5008571;28;20048;-81
2023/04/11 03:54:34;;;;;;;47.75;34.25;;;;;;;10.41;98.78;99826.47;5008477;28;20030;-81
2023/04/11 03:56:59;;;;;;;48.20;35.20;;;;;;;10.40;99.09;99838.19;5008648;28;20045;-81
2023/04/11 03:59:25;;;;;;;45.72;32.67;;;;;;;10.41;99.40;99839.06;5009252;28;20026;-82
2023/04/11 04:01:50;;;;;;;47.67;33.15;;;;;;;10.34;99.43;99845.00;5009065;28;20038;-82
2023/04/11 04:04:16;;;;;;;44.25;30.65;;;;;;;10.27;99.72;99837.66;5009952;28;20065;-80
2023/04/11 04:06:41;;;;;;;36.50;25.80;;;;;;;10.29;99.86;99841.06;5008762;28;20088;-82
2023/04/11 04:09:07;;;;;;;36.30;26.20;;;;;;;10.26;99.59;99841.34;5009987;28;20069;-80
2023/04/11 04:11:32;;;;;;;34.90;24.23;;;;;;;10.15;99.81;99822.69;5026131;28;20034;-84
2023/04/11 04:13:58;;;;;;;36.40;25.02;;;;;;;10.23;99.77;99841.63;5025834;28;20505;-84
2023/04/11 04:16:23;;;;;;;34.80;24.10;;;;;;;10.12;99.87;99818.38;5014117;28;20030;-81
2023/04/11 04:18:49;;;;;;;26.65;21.33;;;;;;;10.05;100.00;99811.03;5008151;28;20022;-83
2023/04/11 04:21:15;;;;;;;27.20;18.88;;;;;;;9.88;99.73;99782.22;5012181;28;20038;-83
2023/04/11 04:23:46;;;;;;;20.98;16.05;;;;;;;9.90;99.83;99804.41;5012949;28;20028;-82
2023/04/11 04:26:14;;;;;;;30.70;18.83;;;;;;;9.86;99.93;99795.78;5012916;28;20038;-84
2023/04/11 04:28:45;;;;;;;30.55;19.55;;;;;;;9.82;100.00;99786.28;5012832;28;20026;-83
2023/04/11 04:31:11;;;;;;;28.13;19.98;;;;;;;9.75;99.93;99775.25;5012667;28;20038;-83
2023/04/11 04:33:37;;;;;;;28.17;19.60;;;;;;;9.67;100.00;99772.44;5012949;28;20056;-84
2023/04/11 04:36:03;;;;;;;27.40;19.02;;;;;;;9.76;100.00;99784.16;5012489;28;20117;-83
2023/04/11 04:38:29;;;;;;;29.13;19.45;;;;;;;9.71;100.00;99784.59;5012628;28;20030;-83
2023/04/11 04:40:55;;;;;;;28.85;21.73;;;;;;;9.68;100.00;99792.94;5012399;28;20022;-82
2023/04/11 04:43:22;;;;;;;30.75;21.88;;;;;;;9.70;100.00;99780.22;5012014;28;20028;-81
2023/04/11 04:45:48;;;;;;;38.55;25.13;;;;;;;9.64;100.00;99771.84;5012804;28;20056;-83
2023/04/11 04:48:13;;;;;;;36.83;24.65;;;;;;;9.70;100.00;99774.84;5012332;28;20542;-81
2023/04/11 04:50:39;;;;;;;36.33;25.02;;;;;;;9.67;100.00;99775.13;5012500;28;20108;-84
2023/04/11 04:53:05;;;;;;;37.42;25.23;;;;;;;9.65;100.00;99766.38;5012127;28;20029;-82
2023/04/11 04:55:32;;;;;;;43.00;24.42;;;;;;;9.56;100.00;99739.50;5027464;28;20060;-82
2023/04/11 04:57:57;;;;;;;36.03;23.45;;;;;;;9.56;100.00;99756.47;5012501;28;20021;-81
2023/04/11 05:00:23;;;;;;;36.63;23.45;;;;;;;9.50;100.00;99746.28;5028140;28;20029;-81
2023/04/11 05:02:48;;;;;;;29.38;20.65;;;;;;;9.56;100.00;99748.41;5014163;28;20022;-81
2023/04/11 05:05:14;;;;;;;32.00;22.20;;;;;;;9.43;100.00;99731.72;5017101;28;20412;-82
2023/04/11 05:07:41;;;;;;;31.67;21.77;;;;;;;9.46;100.00;99734.13;5018330;28;20030;-80
2023/04/11 05:10:07;;;;;;;35.85;22.58;;;;;;;9.51;100.00;99752.50;5020366;28;20089;-83
2023/04/11 05:12:32;;;;;;;30.48;20.92;;;;;;;9.42;100.00;99721.13;5022511;28;20037;-79
2023/04/11 05:14:58;;;;;;;30.35;20.02;;;;;;;9.53;100.00;99724.53;5016223;28;20026;-84
2023/04/11 05:17:25;;;;;;;28.65;20.58;;;;;;;9.54;100.00;99733.44;5022102;28;20103;-81
2023/04/11 05:19:50;;;;;;;33.83;22.23;;;;;;;9.47;100.00;99716.19;5031836;28;20056;-86
2023/04/11 05:22:16;;;;;;;31.90;21.63;;;;;;;9.49;100.00;99727.63;5026524;28;20033;-81
2023/04/11 05:24:41;;;;;;;31.15;22.15;;;;;;;9.51;100.00;99720.31;5015596;28;20080;-81
2023/04/11 05:27:07;;;;;;;26.77;18.65;;;;;;;9.51;100.00;99709.56;5014304;28;20029;-81
2023/04/11 05:29:32;;;;;;;26.45;17.83;;;;;;;9.49;100.00;99701.63;5015258;28;20021;-80
2023/04/11 05:31:58;;;;;;;26.20;16.67;;;;;;;9.44;100.00;99682.44;5012094;28;20402;-79
2023/04/11 05:34:23;;;;;;;20.25;15.70;;;;;;;9.58;100.00;99708.84;5011670;28;20759;-81
2023/04/11 05:36:48;;;;;;;24.35;17.35;;;;;;;9.51;100.00;99701.50;5011565;28;20026;-82
2023/04/11 05:39:14;;;;;;;27.33;16.08;;;;;;;9.62;100.00;99723.69;5011552;28;20028;-80
2023/04/11 05:41:40;;;;;;;24.15;17.05;;;;;;;9.50;100.00;99673.81;5011544;28;20474;-81
2023/04/11 05:44:06;;;;;;;21.85;15.52;;;;;;;9.56;100.00;99697.41;5010984;28;20026;-84
2023/04/11 05:46:35;;;;;;;24.80;15.85;;;;;;;9.61;100.00;99697.81;5012140;28;20045;-79
2023/04/11 05:49:01;;;;;;;22.95;16.17;;;;;;;9.53;100.00;99675.38;5012275;28;20029;-80
2023/04/11 05:51:26;;;;;;;21.45;15.57;;;;;;;9.63;100.00;99684.28;5013768;28;20025;-81
2023/04/11 05:53:52;;;;;;;19.92;14.80;;;;;;;9.63;100.00;99693.16;5012954;28;20032;-82
2023/04/11 05:56:17;;;;;;;22.20;15.55;;;;;;;9.71;100.00;99682.56;5012245;28;20056;-80
2023/04/11 05:58:43;;;;;;;23.70;15.70;;;;;;;9.66;100.00;99682.13;5012318;28;20545;-81
2023/04/11 06:01:17;;;;;;;24.35;17.20;;;;;;;9.68;100.00;99684.69;5012462;28;20038;-79
2023/04/11 06:03:46;;;;;;;25.17;18.38;;;;;;;9.76;100.00;99682.13;5013434;28;20504;-81
2023/04/11 06:06:11;;;;;;;21.50;14.70;;;;;;;9.73;100.00;99685.09;5012969;28;20099;-81
2023/04/11 06:08:37;;;;;;;29.08;14.57;;;;;;;9.68;100.00;99679.31;5013264;28;20024;-81
2023/04/11 06:11:03;;;;;;;18.75;12.95;;;;;;;9.72;100.00;99676.19;5025980;28;20556;-79
2023/04/11 06:13:28;;;;;;;22.40;13.70;;;;;;;9.67;100.00;99673.09;5024464;28;20040;-86
2023/04/11 06:15:54;;;;;;;18.15;13.57;;;;;;;9.58;100.00;99647.09;5012289;28;20029;-84
2023/04/11 06:18:19;;;;;;;21.02;14.07;;;;;;;9.65;100.00;99653.59;5012012;28;20118;-81
2023/04/11 06:20:45;;;;;;;14.90;12.55;;;;;;;9.74;100.00;99679.59;5012878;28;20034;-81
2023/04/11 06:23:11;;;;;;;17.60;13.38;;;;;;;9.73;100.00;99687.78;5010933;28;20018;-80
2023/04/11 06:25:37;;;;;;;19.08;13.48;;;;;;;9.67;100.00;99673.09;5011065;28;20037;-80
2023/04/11 06:28:02;;;;;;;20.63;13.80;;;;;;;9.66;100.00;99662.53;5011550;28;20022;-81
2023/04/11 06:30:27;;;;;;;18.20;13.32;;;;;;;9.64;100.00;99657.28;5011494;28;20032;-81
2023/04/11 06:32:53;;;;;;;22.38;14.90;;;;;;;9.73;100.00;99656.41;5010989;28;20141;-82
2023/04/11 06:35:19;;;;;;;21.83;13.05;;;;;;;9.64;100.00;99635.81;5010506;28;20033;-81
2023/04/11 06:37:45;;;;;;;19.67;14.25;;;;;;;9.67;100.00;99651.63;5010526;28;20022;-81
2023/04/11 06:40:11;;;;;;;23.77;14.05;;;;;;;9.63;100.00;99638.63;5011356;28;20022;-79
2023/04/11 06:42:37;;;;;;;28.67;13.63;;;;;;;9.59;100.00;99627.34;4988668;28;20065;-80
2023/04/11 06:45:03;;;;;;;18.40;13.85;;;;;;;9.68;100.00;99637.22;4988301;28;20734;-80
2023/04/11 06:47:29;;;;;;;16.98;12.40;;;;;;;9.67;100.00;99634.66;4988888;28;20038;-80
2023/04/11 06:49:55;;;;;;;17.92;11.95;;;;;;;9.63;100.00;99627.91;4988209;28;20064;-80
2023/04/11 06:52:20;;;;;;;21.10;12.13;;;;;;;9.64;100.00;99630.44;4987936;28;20549;-80
2023/04/11 06:54:47;;;;;;;14.20;10.63;;;;;;;9.67;100.00;99627.47;4988095;28;20034;-81
2023/04/11 06:57:12;;;;;;;19.73;11.13;;;;;;;9.61;100.00;99627.19;4988348;28;20034;-82
2023/04/11 06:59:38;;;;;;;15.55;10.40;;;;;;;9.61;100.00;99614.59;4988911;28;20038;-79
2023/04/11 07:02:03;;;;;;;15.00;10.25;;;;;;;9.60;100.00;99620.97;4990008;28;20038;-80
2023/04/11 07:04:29;;;;;;;21.52;11.23;;;;;;;9.64;100.00;99619.69;4990225;28;20034;-79
2023/04/11 07:06:55;;;;;;;14.40;10.50;;;;;;;9.68;100.00;99623.78;4989125;28;20030;-80
2023/04/11 07:09:20;;;;;;;15.65;10.77;;;;;;;9.65;100.00;99616.03;4997727;28;20038;-86
2023/04/11 07:11:46;;;;;;;13.73;10.00;;;;;;;9.75;100.00;99616.84;5002865;28;20033;-83
2023/04/11 07:14:11;;;;;;;18.13;10.88;;;;;;;9.69;100.00;99612.03;5013314;28;20529;-81
2023/04/11 07:16:36;;;;;;;16.05;9.98;;;;;;;9.70;100.00;99607.53;5009735;28;20116;-83
2023/04/11 07:19:02;;;;;;;13.57;10.02;;;;;;;9.74;100.00;99607.09;5009945;28;20026;-83
2023/04/11 07:21:29;;;;;;;14.50;9.75;;;;;;;9.72;100.00;99598.34;5009619;28;20474;-81
2023/04/11 07:23:54;;;;;;;11.93;9.23;;;;;;;9.81;100.00;99610.88;5009468;28;20026;-80
2023/04/11 07:26:22;;;;;;;14.18;9.65;;;;;;;9.81;100.00;99605.53;5009669;28;20030;-82
2023/04/11 07:28:48;;;;;;;10.88;8.10;;;;;;;9.79;100.00;99602.13;5009535;28;20064;-81
2023/04/11 07:31:13;;;;;;;11.55;8.30;;;;;;;9.76;100.00;99605.13;5009522;28;20030;-82
2023/04/11 07:33:41;;;;;;;12.27;8.00;;;;;;;9.77;100.00;99601.44;5009726;28;20062;-81
2023/04/11 07:36:07;;;;;;;10.45;8.07;;;;;;;9.82;100.00;99591.09;5009163;28;20104;-82
2023/04/11 07:38:33;;;;;;;13.55;7.63;;;;;;;9.91;100.00;99593.94;5024775;28;20113;-84
2023/04/11 07:41:01;;;;;;;13.77;8.95;;;;;;;9.96;100.00;99591.66;5024683;28;20404;-82
2023/04/11 07:43:27;;;;;;;13.98;6.97;;;;;;;9.96;100.00;99594.34;5009536;28;20026;-83
2023/04/11 07:45:56;;;;;;;14.60;6.97;;;;;;;9.85;100.00;99568.47;5009585;28;20018;-83
2023/04/11 07:48:23;;;;;;;21.02;7.50;;;;;;;9.90;100.00;99570.75;5010000;28;20026;-85
2023/04/11 07:50:49;;;;;;;8.93;6.72;;;;;;;9.83;100.00;99560.59;5010905;28;20105;-83
2023/04/11 07:53:14;;;;;;;9.48;6.55;;;;;;;9.87;100.00;99571.03;5014622;28;20109;-82
2023/04/11 07:55:40;;;;;;;10.77;6.00;;;;;;;9.81;100.00;99562.56;5014500;28;20022;-83
2023/04/11 07:58:05;;;;;;;14.57;7.03;;;;;;;9.80;100.00;99557.34;5014153;28;20032;-84
2023/04/11 08:00:32;;;;;;;14.55;8.23;;;;;;;9.74;100.00;99550.72;5014550;28;20060;-84
2023/04/11 08:03:07;;;;;;;11.35;8.10;;;;;;;9.75;100.00;99563.13;5014710;28;20091;-83
2023/04/11 08:05:34;;;;;;;9.82;7.60;;;;;;;9.71;100.00;99552.84;5016077;28;20439;-83
2023/04/11 08:08:01;;;;;;;10.80;7.40;;;;;;;9.68;100.00;99551.31;5028406;28;20089;-90
2023/04/11 08:10:26;;;;;;;12.32;7.55;;;;;;;9.81;100.00;99562.56;5033918;28;20058;-87
2023/04/11 08:12:52;;;;;;;10.35;7.18;;;;;;;9.84;100.00;99551.56;5031369;28;20026;-83
2023/04/11 08:15:18;;;;;;;12.13;8.80;;;;;;;9.90;100.00;99560.00;5013562;28;20030;-83
2023/04/11 08:17:44;;;;;;;12.55;8.25;;;;;;;9.92;100.00;99552.63;5018930;28;20033;-85
2023/04/11 08:20:11;;;;;;;13.10;7.80;;;;;;;9.97;100.00;99555.75;5015954;28;20061;-84
2023/04/11 08:22:38;;;;;;;16.73;8.25;;;;;;;9.97;100.00;99539.63;5029425;28;20025;-83
2023/04/11 08:25:05;;;;;;;14.18;9.43;;;;;;;9.95;100.00;99541.59;5039272;28;20374;-85
2023/04/11 08:27:30;;;;;;;13.00;7.40;;;;;;;9.90;100.00;99530.47;5012843;28;20167;-84
2023/04/11 08:29:57;;;;;;;10.57;6.95;;;;;;;10.01;100.00;99538.31;5013227;28;20068;-83
2023/04/11 08:32:23;;;;;;;12.43;6.70;;;;;;;10.03;100.00;99534.50;5009820;28;20057;-83
2023/04/11 08:34:48;;;;;;;14.82;7.95;;;;;;;10.03;100.00;99525.63;5010440;28;20053;-84
2023/04/11 08:37:14;;;;;;;7.90;6.05;;;;;;;9.96;100.00;99511.94;5010645;28;20563;-84
2023/04/11 08:39:39;;;;;;;10.70;7.97;;;;;;;9.98;100.00;99526.03;5011020;28;20029;-83
2023/04/11 08:42:05;;;;;;;9.55;6.15;;;;;;;9.99;100.00;99510.78;5010379;28;20045;-84
2023/04/11 08:44:31;;;;;;;8.00;5.25;;;;;;;10.00;100.00;99505.25;5010209;28;20052;-84
2023/04/11 08:46:56;;;;;;;8.95;5.15;;;;;;;9.99;100.00;99494.66;5010544;28;20084;-85
2023/04/11 08:49:21;;;;;;;8.02;4.32;;;;;;;9.85;100.00;99483.41;5010243;28;20038;-85
2023/04/11 08:51:50;;;;;;;11.00;4.55;;;;;;;9.83;100.00;99496.16;5011100;28;20038;-83
2023/04/11 08:54:16;;;;;;;15.82;7.07;;;;;;;9.88;100.00;99487.63;5010391;28;20029;-84
2023/04/11 08:56:42;;;;;;;10.85;4.65;;;;;;;9.79;100.00;99462.53;5009985;28;20030;-85
2023/04/11 08:59:07;;;;;;;9.63;5.25;;;;;;;9.78;100.00;99466.19;5010854;28;20548;-85
2023/04/11 09:01:35;;;;;;;6.13;4.53;;;;;;;9.75;100.00;99461.13;5012932;28;20036;-83
2023/04/11 09:04:03;;;;;;;8.80;4.82;;;;;;;9.87;100.00;99485.97;4995372;28;20041;-82
2023/04/11 09:06:31;;;;;;;7.05;4.97;;;;;;;9.91;100.00;99470.41;5020278;28;20026;-83
2023/04/11 09:09:04;;;;;;;5.57;4.75;;;;;;;9.98;100.00;99471.47;5033749;28;20028;-85
2023/04/11 09:11:29;;;;;;;8.13;5.22;;;;;;;9.94;100.00;99454.81;5034573;28;20030;-85
2023/04/11 09:14:09;;;;;;;9.27;4.93;;;;;;;9.88;100.00;99433.09;5018352;28;20033;-83
2023/04/11 09:16:35;;;;;;;7.53;5.45;;;;;;;9.88;100.00;99436.59;5012632;28;20080;-86
2023/04/11 09:19:01;;;;;;;6.22;4.93;;;;;;;10.04;100.00;99465.50;5032532;28;20034;-85
2023/04/11 09:21:28;;;;;;;9.48;5.15;;;;;;;9.91;100.00;99436.31;5014459;28;20033;-83
2023/04/11 09:24:13;;;;;;;8.48;5.50;;;;;;;9.94;100.00;99443.25;5015193;28;20400;-83
2023/04/11 09:26:38;;;;;;;11.88;5.50;;;;;;;9.95;100.00;99455.66;5015463;28;20030;-83
2023/04/11 09:29:04;;;;;;;7.07;5.03;;;;;;;9.86;100.00;99433.25;5029472;28;20041;-90
2023/04/11 09:31:43;;;;;;;7.05;5.30;;;;;;;9.73;100.00;99400.50;5032436;28;20044;-91
2023/04/11 09:34:10;;;;;;;11.18;5.13;;;;;;;9.88;100.00;99417.00;5036518;28;20078;-82
2023/04/11 09:36:36;;;;;;;8.27;5.22;;;;;;;9.91;100.00;99424.75;5026208;28;20022;-82
2023/04/11 09:39:17;;;;;;;6.53;4.50;;;;;;;9.92;100.00;99413.00;5020680;28;20037;-83
2023/04/11 09:41:43;;;;;;;11.23;7.05;;;;;;;9.85;100.00;99391.25;5017250;28;20041;-85
2023/04/11 09:44:09;;;;;;;10.75;5.60;;;;;;;9.93;100.00;99393.22;5017044;28;20034;-83
2023/04/11 09:46:36;;;;;;;8.07;5.60;;;;;;;9.92;100.00;99386.13;5014445;28;20053;-82
2023/04/11 09:49:02;;;;;;;11.68;5.22;;;;;;;10.09;100.00;99396.09;5014005;28;20508;-83
2023/04/11 09:51:28;;;;;;;10.50;6.60;;;;;;;10.04;100.00;99379.56;5013223;28;20061;-84
2023/04/11 09:53:54;;;;;;;8.60;5.50;;;;;;;10.12;100.00;99393.09;5013698;28;20030;-84
2023/04/11 09:56:20;;;;;;;7.25;4.88;;;;;;;10.18;100.00;99389.81;5028231;28;20045;-82
2023/04/11 09:58:47;;;;;;;8.77;6.03;;;;;;;10.12;100.00;99380.47;5013741;28;20544;-83
2023/04/11 10:01:13;;;;;;;6.30;4.70;;;;;;;10.11;100.00;99376.13;5015102;28;20512;-81
2023/04/11 10:03:42;;;;;;;10.52;4.68;;;;;;;10.17;100.00;99372.00;5015943;28;20033;-82
2023/04/11 10:06:13;;;;;;;8.65;4.88;;;;;;;10.09;100.00;99355.78;5016215;28;20057;-82
2023/04/11 10:08:40;;;;;;;8.00;5.43;;;;;;;10.21;100.00;99366.16;5028614;28;20030;-87
2023/04/11 10:11:13;;;;;;;7.75;5.10;;;;;;;10.27;100.00;99365.53;5026927;28;20029;-85
2023/04/11 10:13:39;;;;;;;;;;;;;;;10.35;100.00;99383.59;5012502;28;20032;-85
2023/04/11 10:16:12;;;;;;;6.43;4.90;;;;;;;10.29;100.00;99363.56;5012747;28;19960;-83
2023/04/11 10:18:49;;;;;;;5.53;4.55;;;;;;;10.40;100.00;99359.78;5012053;28;20533;-82
2023/04/11 10:21:33;;;;;;;7.88;4.63;;;;;;;10.41;100.00;99344.50;5014451;28;20810;-84
2023/04/11 10:24:12;;;;;;;6.70;4.97;;;;;;;10.47;100.00;99344.72;5012260;28;20379;-83
2023/04/11 10:26:57;;;;;;;14.32;5.22;;;;;;;10.66;100.00;99339.19;5011618;28;20029;-83
2023/04/11 10:29:31;;;;;;;12.20;5.18;;;;;;;10.72;100.00;99341.25;5012057;28;20037;-82
2023/04/11 10:32:15;;;;;;;9.75;4.65;;;;;;;10.81;100.00;99326.84;5011601;28;20046;-82
2023/04/11 10:34:53;;;;;;;4.68;4.10;;;;;;;10.85;100.00;99336.31;5009615;28;20030;-84
2023/04/11 10:37:31;;;;;;;10.90;3.70;;;;;;;10.79;100.00;99312.69;5010852;28;20394;-83
2023/04/11 10:39:59;;;;;;;9.43;5.05;;;;;;;10.83;100.00;99321.31;5010700;28;20034;-83
2023/04/11 10:42:45;;;;;;;4.95;3.30;;;;;;;10.80;100.00;99321.63;5010883;28;20544;-82
2023/04/11 10:45:25;;;;;;;7.18;4.25;;;;;;;10.75;100.00;99330.19;5010220;28;20091;-82
2023/04/11 10:48:11;;;;;;;6.40;4.72;;;;;;;10.74;100.00;99320.41;5010174;28;20081;-83
2023/04/11 10:50:43;;;;;;;5.40;3.92;;;;;;;10.70;100.00;99326.28;5010356;28;20037;-83
2023/04/11 10:53:32;;;;;;;4.90;4.15;;;;;;;10.62;100.00;99320.81;5010238;28;20105;-83
2023/04/11 10:55:59;;;;;;;6.25;4.53;;;;;;;10.58;100.00;99311.41;5010962;28;20022;-82
2023/04/11 10:58:33;;;;;;;6.18;4.40;;;;;;;10.57;100.00;99310.56;5010582;28;20505;-82
2023/04/11 11:00:59;;;;;;;8.52;4.93;;;;;;;10.63;100.00;99328.75;5011901;28;20555;-82
2023/04/11 11:03:28;;;;;;;5.80;4.28;;;;;;;10.56;100.00;99316.91;5011987;28;20068;-82
2023/04/11 11:06:02;;;;;;;7.60;5.53;;;;;;;10.59;100.00;99316.59;5014666;28;20021;-85
2023/04/11 11:08:30;;;;;;;5.57;4.38;;;;;;;10.58;100.00;99311.41;5026511;28;20100;-80
2023/04/11 11:11:05;;;;;;;8.93;4.88;;;;;;;10.61;100.00;99319.97;5023533;28;20037;-82
2023/04/11 11:13:59;;;;;;;6.80;4.82;;;;;;;10.65;100.00;99297.16;5010039;28;20092;-82
2023/04/11 11:16:25;;;;;;;7.20;4.93;;;;;;;10.81;100.00;99316.09;4967906;28;20038;-83
2023/04/11 11:18:52;;;;;;;9.57;6.60;;;;;;;10.87;100.00;99303.84;4967870;28;20050;-84